sensor_id;sensor_type;location;lat;lon;timestamp;pressure;altitude;pressure_sealevel;temperature;humidity
74881;BME280;63427;49.654;6.596;2023-08-06T00:00:05;98671.54;;;17.82;45.73
74881;BME280;63427;49.654;6.596;2023-08-06T00:02:29;98669.68;;;17.78;45.73
74881;BME280;63427;49.654;6.596;2023-08-06T00:04:54;98667.09;;;17.43;46.66
74881;BME280;63427;49.654;6.596;2023-08-06T00:07:20;98662.70;;;17.89;46.21
74881;BME280;63427;49.654;6.596;2023-08-06T00:09:45;98665.27;;;17.26;46.96
74881;BME280;63427;49.654;6.596;2023-08-06T00:12:10;98663.15;;;17.72;46.39
74881;BME280;63427;49.654;6.596;2023-08-06T00:14:36;98665.23;;;17.18;46.70
74881;BME280;63427;49.654;6.596;2023-08-06T00:17:01;98663.57;;;17.51;46.70
74881;BME280;63427;49.654;6.596;2023-08-06T00:19:26;98664.13;;;17.22;47.45
74881;BME280;63427;49.654;6.596;2023-08-06T00:21:52;98662.07;;;17.65;45.92
74881;BME280;63427;49.654;6.596;2023-08-06T00:24:18;98661.51;;;17.50;46.73
74881;BME280;63427;49.654;6.596;2023-08-06T00:26:43;98657.42;;;17.66;45.84
74881;BME280;63427;49.654;6.596;2023-08-06T00:29:08;98650.20;;;17.56;46.23
74881;BME280;63427;49.654;6.596;2023-08-06T00:31:33;98652.93;;;17.78;46.80
74881;BME280;63427;49.654;6.596;2023-08-06T00:33:59;98647.04;;;17.93;46.25
74881;BME280;63427;49.654;6.596;2023-08-06T00:36:24;98642.68;;;18.01;46.09
74881;BME280;63427;49.654;6.596;2023-08-06T00:38:49;98642.95;;;17.85;45.89
74881;BME280;63427;49.654;6.596;2023-08-06T00:41:15;98648.38;;;18.02;45.85
74881;BME280;63427;49.654;6.596;2023-08-06T00:43:40;98647.98;;;17.86;45.96
74881;BME280;63427;49.654;6.596;2023-08-06T00:46:05;98645.24;;;17.64;45.99
74881;BME280;63427;49.654;6.596;2023-08-06T00:48:31;98637.73;;;17.65;45.94
74881;BME280;63427;49.654;6.596;2023-08-06T00:50:56;98641.87;;;17.67;45.50
74881;BME280;63427;49.654;6.596;2023-08-06T00:53:21;98648.10;;;17.40;46.23
74881;BME280;63427;49.654;6.596;2023-08-06T00:55:46;98644.92;;;17.02;46.96
74881;BME280;63427;49.654;6.596;2023-08-06T00:58:12;98642.18;;;17.17;47.08
74881;BME280;63427;49.654;6.596;2023-08-06T01:00:37;98637.99;;;16.81;47.62
74881;BME280;63427;49.654;6.596;2023-08-06T01:03:02;98640.43;;;17.12;47.21
74881;BME280;63427;49.654;6.596;2023-08-06T01:05:27;98647.22;;;17.49;46.69
74881;BME280;63427;49.654;6.596;2023-08-06T01:08:06;98644.78;;;17.74;46.31
74881;BME280;63427;49.654;6.596;2023-08-06T01:10:26;98646.56;;;17.36;46.25
74881;BME280;63427;49.654;6.596;2023-08-06T01:12:50;98639.80;;;17.23;46.23
74881;BME280;63427;49.654;6.596;2023-08-06T01:15:17;98642.89;;;17.06;46.90
74881;BME280;63427;49.654;6.596;2023-08-06T01:17:35;98644.41;;;17.32;47.06
74881;BME280;63427;49.654;6.596;2023-08-06T01:19:59;98648.05;;;17.44;47.56
74881;BME280;63427;49.654;6.596;2023-08-06T01:22:25;98642.83;;;15.71;50.46
74881;BME280;63427;49.654;6.596;2023-08-06T01:24:52;98645.21;;;16.35;50.01
74881;BME280;63427;49.654;6.596;2023-08-06T01:27:23;98649.93;;;16.68;49.37
74881;BME280;63427;49.654;6.596;2023-08-06T01:29:44;98643.37;;;16.70;48.67
74881;BME280;63427;49.654;6.596;2023-08-06T01:32:08;98645.17;;;16.92;48.51
74881;BME280;63427;49.654;6.596;2023-08-06T01:34:34;98645.11;;;16.60;48.72
74881;BME280;63427;49.654;6.596;2023-08-06T01:36:58;98641.66;;;16.54;49.23
74881;BME280;63427;49.654;6.596;2023-08-06T01:39:23;98645.61;;;16.99;48.65
74881;BME280;63427;49.654;6.596;2023-08-06T01:41:48;98644.89;;;17.03;48.21
74881;BME280;63427;49.654;6.596;2023-08-06T01:44:14;98646.08;;;16.05;49.68
74881;BME280;63427;49.654;6.596;2023-08-06T01:46:39;98643.37;;;16.65;49.42
74881;BME280;63427;49.654;6.596;2023-08-06T01:49:04;98641.72;;;17.02;48.83
74881;BME280;63427;49.654;6.596;2023-08-06T01:51:29;98636.08;;;16.82;48.33
74881;BME280;63427;49.654;6.596;2023-08-06T01:53:55;98635.13;;;16.86;48.15
74881;BME280;63427;49.654;6.596;2023-08-06T01:56:20;98629.46;;;16.70;48.16
74881;BME280;63427;49.654;6.596;2023-08-06T01:58:45;98630.99;;;17.30;47.91
74881;BME280;63427;49.654;6.596;2023-08-06T02:01:11;98632.62;;;17.00;47.46
74881;BME280;63427;49.654;6.596;2023-08-06T02:03:36;98628.63;;;16.98;47.64
74881;BME280;63427;49.654;6.596;2023-08-06T02:06:01;98633.39;;;17.31;47.18
74881;BME280;63427;49.654;6.596;2023-08-06T02:08:27;98629.57;;;17.23;47.21
74881;BME280;63427;49.654;6.596;2023-08-06T02:10:52;98627.52;;;17.12;47.26
74881;BME280;63427;49.654;6.596;2023-08-06T02:13:17;98625.45;;;16.56;47.77
74881;BME280;63427;49.654;6.596;2023-08-06T02:15:43;98625.44;;;17.27;47.29
74881;BME280;63427;49.654;6.596;2023-08-06T02:18:08;98623.62;;;16.26;49.30
74881;BME280;63427;49.654;6.596;2023-08-06T02:20:33;98626.13;;;16.63;48.30
74881;BME280;63427;49.654;6.596;2023-08-06T02:22:58;98628.86;;;15.83;50.44
74881;BME280;63427;49.654;6.596;2023-08-06T02:25:24;98627.42;;;16.62;48.91
74881;BME280;63427;49.654;6.596;2023-08-06T02:27:49;98624.76;;;16.68;48.11
74881;BME280;63427;49.654;6.596;2023-08-06T02:30:14;98624.46;;;16.88;47.99
74881;BME280;63427;49.654;6.596;2023-08-06T02:32:39;98622.92;;;16.81;47.79
74881;BME280;63427;49.654;6.596;2023-08-06T02:35:06;98619.62;;;17.00;47.46
74881;BME280;63427;49.654;6.596;2023-08-06T02:37:30;98619.17;;;17.00;47.33
74881;BME280;63427;49.654;6.596;2023-08-06T02:39:55;98611.89;;;16.87;47.41
74881;BME280;63427;49.654;6.596;2023-08-06T02:42:21;98609.10;;;16.70;47.46
74881;BME280;63427;49.654;6.596;2023-08-06T02:44:46;98611.25;;;16.48;48.85
74881;BME280;63427;49.654;6.596;2023-08-06T02:47:11;98607.62;;;16.69;48.70
74881;BME280;63427;49.654;6.596;2023-08-06T02:49:37;98607.19;;;16.63;48.97
74881;BME280;63427;49.654;6.596;2023-08-06T02:52:02;98607.00;;;16.38;49.37
74881;BME280;63427;49.654;6.596;2023-08-06T02:54:27;98607.12;;;16.57;49.27
74881;BME280;63427;49.654;6.596;2023-08-06T02:56:53;98603.03;;;16.39;49.69
74881;BME280;63427;49.654;6.596;2023-08-06T02:59:18;98606.42;;;15.69;51.30
74881;BME280;63427;49.654;6.596;2023-08-06T03:01:43;98603.92;;;16.16;50.45
74881;BME280;63427;49.654;6.596;2023-08-06T03:04:08;98608.37;;;16.02;49.41
74881;BME280;63427;49.654;6.596;2023-08-06T03:06:34;98604.51;;;16.22;49.34
74881;BME280;63427;49.654;6.596;2023-08-06T03:08:59;98605.79;;;16.64;49.11
74881;BME280;63427;49.654;6.596;2023-08-06T03:11:25;98600.14;;;16.75;48.77
74881;BME280;63427;49.654;6.596;2023-08-06T03:13:50;98601.13;;;16.29;49.07
74881;BME280;63427;49.654;6.596;2023-08-06T03:16:15;98593.93;;;16.41;48.07
74881;BME280;63427;49.654;6.596;2023-08-06T03:18:40;98592.38;;;17.02;48.42
74881;BME280;63427;49.654;6.596;2023-08-06T03:21:06;98596.08;;;15.81;50.12
74881;BME280;63427;49.654;6.596;2023-08-06T03:23:31;98591.64;;;15.82;50.42
74881;BME280;63427;49.654;6.596;2023-08-06T03:26:00;98589.36;;;16.32;50.07
74881;BME280;63427;49.654;6.596;2023-08-06T03:28:22;98590.70;;;15.50;51.74
74881;BME280;63427;49.654;6.596;2023-08-06T03:30:47;98595.17;;;15.95;50.39
74881;BME280;63427;49.654;6.596;2023-08-06T03:33:12;98595.80;;;16.07;50.85
74881;BME280;63427;49.654;6.596;2023-08-06T03:35:37;98596.05;;;16.09;50.16
74881;BME280;63427;49.654;6.596;2023-08-06T03:38:03;98598.64;;;16.12;50.67
74881;BME280;63427;49.654;6.596;2023-08-06T03:40:28;98597.56;;;16.16;50.18
74881;BME280;63427;49.654;6.596;2023-08-06T03:42:53;98595.18;;;16.10;50.40
74881;BME280;63427;49.654;6.596;2023-08-06T03:45:19;98588.85;;;15.72;51.35
74881;BME280;63427;49.654;6.596;2023-08-06T03:47:44;98588.36;;;15.98;50.05
74881;BME280;63427;49.654;6.596;2023-08-06T03:50:10;98584.42;;;16.42;49.21
74881;BME280;63427;49.654;6.596;2023-08-06T03:52:35;98584.30;;;16.58;49.40
74881;BME280;63427;49.654;6.596;2023-08-06T03:55:00;98587.06;;;17.02;48.69
74881;BME280;63427;49.654;6.596;2023-08-06T03:57:25;98585.08;;;16.23;49.50
74881;BME280;63427;49.654;6.596;2023-08-06T03:59:51;98580.36;;;16.75;47.98
74881;BME280;63427;49.654;6.596;2023-08-06T04:02:16;98583.54;;;16.72;47.78
74881;BME280;63427;49.654;6.596;2023-08-06T04:04:42;98585.45;;;16.38;48.77
74881;BME280;63427;49.654;6.596;2023-08-06T04:07:07;98583.15;;;16.88;48.48
74881;BME280;63427;49.654;6.596;2023-08-06T04:09:32;98585.66;;;16.82;47.80
74881;BME280;63427;49.654;6.596;2023-08-06T04:11:58;98588.57;;;16.39;48.42
74881;BME280;63427;49.654;6.596;2023-08-06T04:14:23;98586.48;;;16.28;49.84
74881;BME280;63427;49.654;6.596;2023-08-06T04:16:48;98586.96;;;15.82;49.49
74881;BME280;63427;49.654;6.596;2023-08-06T04:19:14;98589.07;;;16.52;48.86
74881;BME280;63427;49.654;6.596;2023-08-06T04:21:39;98589.29;;;16.55;49.18
74881;BME280;63427;49.654;6.596;2023-08-06T04:24:04;98592.24;;;16.70;48.85
74881;BME280;63427;49.654;6.596;2023-08-06T04:26:30;98593.35;;;16.45;49.08
74881;BME280;63427;49.654;6.596;2023-08-06T04:28:55;98596.18;;;15.91;49.97
74881;BME280;63427;49.654;6.596;2023-08-06T04:31:21;98597.90;;;16.05;49.75
74881;BME280;63427;49.654;6.596;2023-08-06T04:33:45;98596.94;;;16.43;49.43
74881;BME280;63427;49.654;6.596;2023-08-06T04:36:11;98597.49;;;17.05;48.44
74881;BME280;63427;49.654;6.596;2023-08-06T04:38:36;98595.04;;;16.64;49.04
74881;BME280;63427;49.654;6.596;2023-08-06T04:41:02;98597.30;;;16.50;48.92
74881;BME280;63427;49.654;6.596;2023-08-06T04:43:27;98596.48;;;16.59;48.66
74881;BME280;63427;49.654;6.596;2023-08-06T04:45:54;98592.78;;;17.24;48.10
74881;BME280;63427;49.654;6.596;2023-08-06T04:48:17;98601.54;;;16.39;49.88
74881;BME280;63427;49.654;6.596;2023-08-06T04:50:44;98602.01;;;16.62;49.40
74881;BME280;63427;49.654;6.596;2023-08-06T04:53:08;98601.41;;;16.39;49.88
74881;BME280;63427;49.654;6.596;2023-08-06T04:55:33;98605.59;;;17.07;49.04
74881;BME280;63427;49.654;6.596;2023-08-06T04:57:59;98605.62;;;16.84;49.05
74881;BME280;63427;49.654;6.596;2023-08-06T05:00:24;98611.79;;;16.90;48.33
74881;BME280;63427;49.654;6.596;2023-08-06T05:02:50;98611.00;;;16.41;49.24
74881;BME280;63427;49.654;6.596;2023-08-06T05:05:15;98613.80;;;16.72;48.25
74881;BME280;63427;49.654;6.596;2023-08-06T05:07:41;98616.54;;;16.34;49.04
74881;BME280;63427;49.654;6.596;2023-08-06T05:10:07;98621.04;;;15.93;50.91
74881;BME280;63427;49.654;6.596;2023-08-06T05:12:31;98620.03;;;16.49;49.35
74881;BME280;63427;49.654;6.596;2023-08-06T05:14:57;98624.95;;;16.65;48.26
74881;BME280;63427;49.654;6.596;2023-08-06T05:17:22;98627.40;;;16.84;47.99
74881;BME280;63427;49.654;6.596;2023-08-06T05:19:47;98628.86;;;16.42;48.88
74881;BME280;63427;49.654;6.596;2023-08-06T05:22:13;98628.16;;;17.04;47.34
74881;BME280;63427;49.654;6.596;2023-08-06T05:24:38;98629.25;;;17.06;47.60
74881;BME280;63427;49.654;6.596;2023-08-06T05:27:04;98635.88;;;17.23;47.18
74881;BME280;63427;49.654;6.596;2023-08-06T05:29:29;98640.48;;;16.59;48.83
74881;BME280;63427;49.654;6.596;2023-08-06T05:31:54;98639.25;;;17.19;48.54
74881;BME280;63427;49.654;6.596;2023-08-06T05:34:19;98642.52;;;16.76;48.63
74881;BME280;63427;49.654;6.596;2023-08-06T05:36:44;98641.40;;;17.16;47.96
74881;BME280;63427;49.654;6.596;2023-08-06T05:39:10;98646.05;;;17.03;48.33
74881;BME280;63427;49.654;6.596;2023-08-06T05:41:35;98648.90;;;17.46;47.58
74881;BME280;63427;49.654;6.596;2023-08-06T05:44:00;98649.83;;;17.61;47.07
74881;BME280;63427;49.654;6.596;2023-08-06T05:46:26;98654.04;;;17.65;47.18
74881;BME280;63427;49.654;6.596;2023-08-06T05:48:51;98650.84;;;17.56;46.53
74881;BME280;63427;49.654;6.596;2023-08-06T05:51:16;98656.55;;;16.94;47.69
74881;BME280;63427;49.654;6.596;2023-08-06T05:53:42;98656.13;;;16.88;49.05
74881;BME280;63427;49.654;6.596;2023-08-06T05:56:07;98654.70;;;17.25;47.75
74881;BME280;63427;49.654;6.596;2023-08-06T05:58:32;98653.79;;;17.28;47.96
74881;BME280;63427;49.654;6.596;2023-08-06T06:00:57;98656.58;;;17.31;47.26
74881;BME280;63427;49.654;6.596;2023-08-06T06:03:23;98657.07;;;17.14;47.46
74881;BME280;63427;49.654;6.596;2023-08-06T06:05:48;98663.92;;;17.52;46.94
74881;BME280;63427;49.654;6.596;2023-08-06T06:08:13;98658.25;;;17.23;47.49
74881;BME280;63427;49.654;6.596;2023-08-06T06:10:39;98653.00;;;16.93;48.13
74881;BME280;63427;49.654;6.596;2023-08-06T06:13:04;98653.99;;;17.28;46.70
74881;BME280;63427;49.654;6.596;2023-08-06T06:15:29;98658.45;;;16.38;48.96
74881;BME280;63427;49.654;6.596;2023-08-06T06:17:55;98657.39;;;16.82;47.94
74881;BME280;63427;49.654;6.596;2023-08-06T06:20:20;98662.09;;;17.28;47.08
74881;BME280;63427;49.654;6.596;2023-08-06T06:22:45;98660.93;;;17.35;46.76
74881;BME280;63427;49.654;6.596;2023-08-06T06:25:10;98666.07;;;17.65;46.32
74881;BME280;63427;49.654;6.596;2023-08-06T06:27:36;98677.30;;;17.08;47.47
74881;BME280;63427;49.654;6.596;2023-08-06T06:30:01;98677.29;;;16.98;47.76
74881;BME280;63427;49.654;6.596;2023-08-06T06:32:26;98688.27;;;17.31;47.29
74881;BME280;63427;49.654;6.596;2023-08-06T06:34:52;98690.92;;;16.77;47.78
74881;BME280;63427;49.654;6.596;2023-08-06T06:37:17;98697.02;;;16.85;48.27
74881;BME280;63427;49.654;6.596;2023-08-06T06:39:42;98692.51;;;16.49;48.74
74881;BME280;63427;49.654;6.596;2023-08-06T06:42:07;98693.96;;;16.30;49.02
74881;BME280;63427;49.654;6.596;2023-08-06T06:44:33;98692.04;;;16.69;48.13
74881;BME280;63427;49.654;6.596;2023-08-06T06:46:58;98693.75;;;16.65;47.74
74881;BME280;63427;49.654;6.596;2023-08-06T06:49:23;98696.38;;;16.71;48.64
74881;BME280;63427;49.654;6.596;2023-08-06T06:51:49;98689.82;;;17.13;48.07
74881;BME280;63427;49.654;6.596;2023-08-06T06:54:14;98686.88;;;17.13;46.43
74881;BME280;63427;49.654;6.596;2023-08-06T06:56:39;98683.41;;;17.42;47.11
74881;BME280;63427;49.654;6.596;2023-08-06T06:59:05;98680.33;;;17.15;47.34
74881;BME280;63427;49.654;6.596;2023-08-06T07:01:30;98680.89;;;17.06;46.90
74881;BME280;63427;49.654;6.596;2023-08-06T07:03:55;98684.29;;;17.60;46.31
74881;BME280;63427;49.654;6.596;2023-08-06T07:06:20;98681.20;;;16.22;47.93
74881;BME280;63427;49.654;6.596;2023-08-06T07:08:46;98679.10;;;17.23;46.62
74881;BME280;63427;49.654;6.596;2023-08-06T07:11:11;98679.38;;;16.77;47.04
74881;BME280;63427;49.654;6.596;2023-08-06T07:13:37;98693.52;;;17.05;47.24
74881;BME280;63427;49.654;6.596;2023-08-06T07:16:02;98695.95;;;17.47;45.88
74881;BME280;63427;49.654;6.596;2023-08-06T07:18:27;98702.27;;;17.59;46.19
74881;BME280;63427;49.654;6.596;2023-08-06T07:20:53;98704.10;;;17.41;45.33
74881;BME280;63427;49.654;6.596;2023-08-06T07:23:19;98715.51;;;17.55;44.63
74881;BME280;63427;49.654;6.596;2023-08-06T07:25:43;98711.78;;;17.15;44.75
74881;BME280;63427;49.654;6.596;2023-08-06T07:28:09;98727.64;;;16.91;45.84
74881;BME280;63427;49.654;6.596;2023-08-06T07:30:33;98726.44;;;17.05;45.55
74881;BME280;63427;49.654;6.596;2023-08-06T07:32:59;98730.09;;;17.15;45.93
74881;BME280;63427;49.654;6.596;2023-08-06T07:35:24;98741.13;;;16.97;46.14
74881;BME280;63427;49.654;6.596;2023-08-06T07:37:49;98748.58;;;17.30;45.24
74881;BME280;63427;49.654;6.596;2023-08-06T07:40:15;98755.82;;;17.04;46.05
74881;BME280;63427;49.654;6.596;2023-08-06T07:42:40;98767.14;;;16.69;46.64
74881;BME280;63427;49.654;6.596;2023-08-06T07:45:07;98766.07;;;16.54;47.00
74881;BME280;63427;49.654;6.596;2023-08-06T07:47:31;98773.56;;;16.91;46.97
74881;BME280;63427;49.654;6.596;2023-08-06T07:49:56;98776.31;;;16.66;46.72
74881;BME280;63427;49.654;6.596;2023-08-06T07:52:21;98780.58;;;16.62;46.35
74881;BME280;63427;49.654;6.596;2023-08-06T07:54:47;98788.63;;;16.63;47.39
74881;BME280;63427;49.654;6.596;2023-08-06T07:57:12;98787.37;;;15.78;47.82
74881;BME280;63427;49.654;6.596;2023-08-06T07:59:37;98796.54;;;16.30;47.62
74881;BME280;63427;49.654;6.596;2023-08-06T08:02:03;98801.57;;;16.50;47.87
74881;BME280;63427;49.654;6.596;2023-08-06T08:04:28;98808.33;;;16.52;47.05
74881;BME280;63427;49.654;6.596;2023-08-06T08:06:53;98814.19;;;16.74;47.02
74881;BME280;63427;49.654;6.596;2023-08-06T08:09:19;98817.11;;;16.52;47.04
74881;BME280;63427;49.654;6.596;2023-08-06T08:11:45;98822.33;;;16.67;46.69
74881;BME280;63427;49.654;6.596;2023-08-06T08:14:09;98827.00;;;16.33;47.36
74881;BME280;63427;49.654;6.596;2023-08-06T08:16:34;98827.29;;;16.68;46.41
74881;BME280;63427;49.654;6.596;2023-08-06T08:19:00;98832.42;;;16.51;46.57
74881;BME280;63427;49.654;6.596;2023-08-06T08:21:26;98832.23;;;16.52;46.73
74881;BME280;63427;49.654;6.596;2023-08-06T08:23:51;98846.72;;;16.84;47.00
74881;BME280;63427;49.654;6.596;2023-08-06T08:26:16;98852.89;;;16.48;46.21
74881;BME280;63427;49.654;6.596;2023-08-06T08:28:41;98852.91;;;16.69;47.09
74881;BME280;63427;49.654;6.596;2023-08-06T08:31:08;98851.32;;;16.79;46.81
74881;BME280;63427;49.654;6.596;2023-08-06T08:33:32;98860.48;;;16.66;47.42
74881;BME280;63427;49.654;6.596;2023-08-06T08:35:57;98859.42;;;16.44;47.33
74881;BME280;63427;49.654;6.596;2023-08-06T08:38:22;98863.20;;;16.90;46.52
74881;BME280;63427;49.654;6.596;2023-08-06T08:40:51;98864.90;;;16.50;47.19
74881;BME280;63427;49.654;6.596;2023-08-06T08:43:14;98866.25;;;16.95;46.12
74881;BME280;63427;49.654;6.596;2023-08-06T08:45:40;98867.08;;;17.04;45.75
74881;BME280;63427;49.654;6.596;2023-08-06T08:48:04;98867.49;;;16.87;45.83
74881;BME280;63427;49.654;6.596;2023-08-06T08:50:29;98871.48;;;17.24;45.31
74881;BME280;63427;49.654;6.596;2023-08-06T08:52:54;98873.26;;;17.58;44.77
74881;BME280;63427;49.654;6.596;2023-08-06T08:55:21;98877.08;;;17.39;44.23
74881;BME280;63427;49.654;6.596;2023-08-06T08:57:45;98883.27;;;17.28;44.62
74881;BME280;63427;49.654;6.596;2023-08-06T09:00:10;98888.27;;;17.33;44.80
74881;BME280;63427;49.654;6.596;2023-08-06T09:02:38;98894.25;;;17.41;44.88
74881;BME280;63427;49.654;6.596;2023-08-06T09:05:01;98888.70;;;17.42;44.17
74881;BME280;63427;49.654;6.596;2023-08-06T09:07:26;98906.48;;;17.15;44.80
74881;BME280;63427;49.654;6.596;2023-08-06T09:09:52;98906.84;;;16.85;45.03
74881;BME280;63427;49.654;6.596;2023-08-06T09:12:17;98913.10;;;16.49;45.75
74881;BME280;63427;49.654;6.596;2023-08-06T09:14:43;98926.20;;;17.27;44.32
74881;BME280;63427;49.654;6.596;2023-08-06T09:17:07;98923.66;;;17.50;44.14
74881;BME280;63427;49.654;6.596;2023-08-06T09:19:33;98926.38;;;17.42;42.78
74881;BME280;63427;49.654;6.596;2023-08-06T09:21:59;98941.95;;;18.07;42.34
74881;BME280;63427;49.654;6.596;2023-08-06T09:24:23;98942.16;;;17.97;41.37
74881;BME280;63427;49.654;6.596;2023-08-06T09:26:48;98955.72;;;17.48;42.32
74881;BME280;63427;49.654;6.596;2023-08-06T09:29:14;98943.76;;;17.75;42.15
74881;BME280;63427;49.654;6.596;2023-08-06T09:31:41;98950.03;;;17.93;41.55
74881;BME280;63427;49.654;6.596;2023-08-06T09:34:10;98951.81;;;17.57;41.61
74881;BME280;63427;49.654;6.596;2023-08-06T09:36:30;98963.64;;;17.73;41.76
74881;BME280;63427;49.654;6.596;2023-08-06T09:38:55;98960.55;;;18.55;39.80
74881;BME280;63427;49.654;6.596;2023-08-06T09:41:27;98968.87;;;18.18;39.79
74881;BME280;63427;49.654;6.596;2023-08-06T09:43:46;98978.05;;;18.59;40.15
74881;BME280;63427;49.654;6.596;2023-08-06T09:46:12;98981.11;;;18.29;40.32
74881;BME280;63427;49.654;6.596;2023-08-06T09:48:37;98984.30;;;18.29;39.76
74881;BME280;63427;49.654;6.596;2023-08-06T09:51:02;98982.20;;;18.06;40.29
74881;BME280;63427;49.654;6.596;2023-08-06T09:53:27;98981.44;;;18.15;40.40
74881;BME280;63427;49.654;6.596;2023-08-06T09:55:52;98996.01;;;18.16;40.90
74881;BME280;63427;49.654;6.596;2023-08-06T09:58:18;98985.83;;;18.43;40.04
74881;BME280;63427;49.654;6.596;2023-08-06T10:00:43;98986.75;;;18.51;39.71
74881;BME280;63427;49.654;6.596;2023-08-06T10:03:10;98998.70;;;18.32;40.04
74881;BME280;63427;49.654;6.596;2023-08-06T10:05:33;98998.99;;;18.51;40.63
74881;BME280;63427;49.654;6.596;2023-08-06T10:07:59;99000.20;;;18.72;40.45
74881;BME280;63427;49.654;6.596;2023-08-06T10:10:25;99006.53;;;18.71;40.98
74881;BME280;63427;49.654;6.596;2023-08-06T10:12:51;99009.94;;;17.80;41.39
74881;BME280;63427;49.654;6.596;2023-08-06T10:15:17;99010.12;;;18.56;41.19
74881;BME280;63427;49.654;6.596;2023-08-06T10:17:40;99012.50;;;18.40;40.36
74881;BME280;63427;49.654;6.596;2023-08-06T10:20:06;99018.61;;;18.57;40.96
74881;BME280;63427;49.654;6.596;2023-08-06T10:22:32;99017.30;;;18.68;40.97
74881;BME280;63427;49.654;6.596;2023-08-06T10:24:57;99030.43;;;18.87;40.75
74881;BME280;63427;49.654;6.596;2023-08-06T10:27:23;99036.20;;;18.92;40.43
74881;BME280;63427;49.654;6.596;2023-08-06T10:29:46;99040.48;;;18.94;41.43
74881;BME280;63427;49.654;6.596;2023-08-06T10:32:11;99047.77;;;19.09;42.01
74881;BME280;63427;49.654;6.596;2023-08-06T10:37:02;99051.22;;;18.48;42.97
74881;BME280;63427;49.654;6.596;2023-08-06T10:39:27;99048.08;;;19.00;42.49
74881;BME280;63427;49.654;6.596;2023-08-06T10:41:52;99044.43;;;19.10;41.28
74881;BME280;63427;49.654;6.596;2023-08-06T10:44:17;99049.71;;;18.87;42.92
74881;BME280;63427;49.654;6.596;2023-08-06T10:46:43;99046.47;;;19.04;42.07
74881;BME280;63427;49.654;6.596;2023-08-06T10:49:08;99051.27;;;19.14;41.55
74881;BME280;63427;49.654;6.596;2023-08-06T10:51:33;99053.22;;;19.32;41.89
74881;BME280;63427;49.654;6.596;2023-08-06T10:53:58;99056.42;;;18.64;40.64
74881;BME280;63427;49.654;6.596;2023-08-06T10:56:24;99056.42;;;18.74;42.21
74881;BME280;63427;49.654;6.596;2023-08-06T10:58:50;99052.64;;;19.26;41.51
74881;BME280;63427;49.654;6.596;2023-08-06T11:01:14;99051.24;;;18.89;41.28
74881;BME280;63427;49.654;6.596;2023-08-06T11:03:41;99074.67;;;19.12;40.76
74881;BME280;63427;49.654;6.596;2023-08-06T11:06:04;99077.07;;;18.62;41.89
74881;BME280;63427;49.654;6.596;2023-08-06T11:08:34;99069.97;;;18.63;42.54
74881;BME280;63427;49.654;6.596;2023-08-06T11:10:55;99094.55;;;18.96;42.70
74881;BME280;63427;49.654;6.596;2023-08-06T11:13:31;99078.43;;;18.04;40.78
74881;BME280;63427;49.654;6.596;2023-08-06T11:15:46;99079.33;;;18.09;41.45
74881;BME280;63427;49.654;6.596;2023-08-06T11:18:11;99074.64;;;18.39;40.93
74881;BME280;63427;49.654;6.596;2023-08-06T11:20:36;99077.54;;;18.86;39.96
74881;BME280;63427;49.654;6.596;2023-08-06T11:23:01;99066.77;;;19.16;40.24
74881;BME280;63427;49.654;6.596;2023-08-06T11:25:26;99069.96;;;19.85;40.47
74881;BME280;63427;49.654;6.596;2023-08-06T11:27:51;99079.43;;;19.85;37.88
74881;BME280;63427;49.654;6.596;2023-08-06T11:30:16;99073.75;;;19.82;38.55
74881;BME280;63427;49.654;6.596;2023-08-06T11:32:45;99079.14;;;19.85;39.97
74881;BME280;63427;49.654;6.596;2023-08-06T11:35:10;99084.68;;;19.55;39.43
74881;BME280;63427;49.654;6.596;2023-08-06T11:37:33;99084.81;;;18.82;40.58
74881;BME280;63427;49.654;6.596;2023-08-06T11:39:57;99079.19;;;19.54;41.54
74881;BME280;63427;49.654;6.596;2023-08-06T11:42:23;99083.15;;;20.10;37.80
74881;BME280;63427;49.654;6.596;2023-08-06T11:47:15;99077.34;;;20.40;37.35
74881;BME280;63427;49.654;6.596;2023-08-06T11:49:40;99089.79;;;20.51;37.89
74881;BME280;63427;49.654;6.596;2023-08-06T11:52:09;99082.02;;;20.35;37.79
74881;BME280;63427;49.654;6.596;2023-08-06T11:54:31;99085.77;;;20.51;36.92
74881;BME280;63427;49.654;6.596;2023-08-06T11:56:53;99091.04;;;20.58;37.36
74881;BME280;63427;49.654;6.596;2023-08-06T11:59:19;99096.98;;;20.26;36.54
74881;BME280;63427;49.654;6.596;2023-08-06T12:01:44;99102.07;;;21.32;37.59
74881;BME280;63427;49.654;6.596;2023-08-06T12:04:09;99100.73;;;21.40;36.78
74881;BME280;63427;49.654;6.596;2023-08-06T12:06:41;99093.53;;;21.41;34.10
74881;BME280;63427;49.654;6.596;2023-08-06T12:08:59;99102.70;;;21.43;36.60
74881;BME280;63427;49.654;6.596;2023-08-06T12:11:25;99099.35;;;21.40;33.81
74881;BME280;63427;49.654;6.596;2023-08-06T12:13:51;99093.66;;;21.93;32.30
74881;BME280;63427;49.654;6.596;2023-08-06T12:16:15;99099.43;;;21.87;34.32
74881;BME280;63427;49.654;6.596;2023-08-06T12:18:40;99084.64;;;22.05;32.45
74881;BME280;63427;49.654;6.596;2023-08-06T12:21:05;99083.82;;;21.98;32.84
74881;BME280;63427;49.654;6.596;2023-08-06T12:23:30;99084.94;;;22.08;33.21
74881;BME280;63427;49.654;6.596;2023-08-06T12:25:55;99093.16;;;21.55;32.84
74881;BME280;63427;49.654;6.596;2023-08-06T12:28:20;99098.43;;;22.15;33.39
74881;BME280;63427;49.654;6.596;2023-08-06T12:30:45;99101.64;;;22.06;33.18
74881;BME280;63427;49.654;6.596;2023-08-06T12:33:11;99099.06;;;21.82;32.56
74881;BME280;63427;49.654;6.596;2023-08-06T12:35:36;99099.52;;;21.73;32.52
74881;BME280;63427;49.654;6.596;2023-08-06T12:38:01;99108.68;;;22.07;32.71
74881;BME280;63427;49.654;6.596;2023-08-06T12:40:26;99111.09;;;21.51;33.11
74881;BME280;63427;49.654;6.596;2023-08-06T12:42:51;99120.24;;;21.41;33.89
74881;BME280;63427;49.654;6.596;2023-08-06T12:45:16;99132.47;;;21.19;33.58
74881;BME280;63427;49.654;6.596;2023-08-06T12:47:41;99133.07;;;21.14;33.28
74881;BME280;63427;49.654;6.596;2023-08-06T12:50:07;99121.77;;;21.11;33.25
74881;BME280;63427;49.654;6.596;2023-08-06T12:52:31;99122.69;;;20.83;33.60